Current Weather

Yakutsk

Yakutsk, Russia (UEEE)

Report from: Sunday, December 4, 2022 8:00 PM JST
Current time: Sunday, December 4, 2022 8:25 PM JST

Nearby weather
Weather history
Weather forecast

Present weatherLight snow, mist
Temperature-36.0°C (-32.8°F)
Wind chill-44.4°C (-47.9°F)
Dew point-40.0°C (-40.0°F)
Winds 3.9 kts (2 m/s, 4.5 mph) South-Southeast (160°)
Visibility3.1 mi. (5 km)
Altimeter29.59 in.Hg (1002 mB)
Precip. events QF 7:23 AM
Relative humidity66 %
Density altitude-6,390 ft. (-1,948 m)
Remarks No significant changes expected in the next two hours
Flight conditions Marginal Visual Meteorological Conditions
Raw dataUEEE 041100Z 16002MPS 5000 -SN BR NSC M36/M40 Q1002 R23L/490155 NOSIG RMK QFE743
An error has occurred. This application may no longer respond until reloaded. Reload 🗙